Time;durP1;ratioP1;P1;durP2;ratioP2;P2;SDS_P1;SDS_P2;PMS_P1;PMS_P2;Temp;Humidity;BMP_temperature;BMP_pressure;BME280_temperature;BME280_humidity;BME280_pressure;Samples;Min_cycle;Max_cycle;Signal;HPM_P1;HPM_P2
2022/04/27 00:00:03;;;;;;;;;;;;;;;14.68;53.93;100970.66;4921657;28;97832;-65
2022/04/27 00:02:30;;;;;;;;;;;;;;;14.65;54.08;100969.31;4920432;28;98434;-62
2022/04/27 00:04:57;;;;;;;;;;;;;;;14.64;54.31;100972.31;4922063;28;98203;-66
2022/04/27 00:07:23;;;;;;;;;;;;;;;14.61;54.01;100975.59;4921481;28;98582;-66
2022/04/27 00:09:49;;;;;;;;;;;;;;;14.59;54.21;100975.88;4920691;28;122049;-63
2022/04/27 00:12:15;;;;;;;;;;;;;;;14.56;54.12;100971.00;4920294;28;128873;-62
2022/04/27 00:14:41;;;;;;;;;;;;;;;14.53;54.08;100974.28;4901656;28;127874;-62
2022/04/27 00:17:07;;;;;;;;;;;;;;;14.50;54.08;100980.25;4920958;28;127717;-62
2022/04/27 00:19:33;;;;;;;;;;;;;;;14.49;54.13;100981.34;4923663;28;102826;-62
2022/04/27 00:21:59;;;;;;;;;;;;;;;14.46;54.39;100977.28;4940180;28;127614;-63
2022/04/27 00:24:24;;;;;;;;;;;;;;;14.44;54.19;100978.66;4923784;28;100385;-63
2022/04/27 00:26:51;;;;;;;;;;;;;;;14.41;54.55;100981.91;4920413;28;122465;-67
2022/04/27 00:29:17;;;;;;;;;;;;;;;14.39;54.38;100984.94;4919607;28;97910;-62
2022/04/27 00:31:43;;;;;;;;;;;;;;;14.36;54.51;100982.75;4919078;28;118017;-65
2022/04/27 00:34:09;;;;;;;;;;;;;;;14.33;54.47;100983.31;4920340;28;127773;-65
2022/04/27 00:36:35;;;;;;;;;;;;;;;14.32;54.47;100978.19;4936183;28;98210;-63
2022/04/27 00:39:01;;;;;;;;;;;;;;;14.29;54.44;100978.75;4920394;28;97806;-62
2022/04/27 00:41:27;;;;;;;;;;;;;;;14.28;54.40;100987.97;4920108;28;124910;-63
2022/04/27 00:43:54;;;;;;;;;;;;;;;14.25;54.30;100989.34;4920380;28;122396;-66
2022/04/27 00:46:20;;;;;;;;;;;;;;;14.23;54.74;100988.81;4921955;28;98308;-65
2022/04/27 00:48:46;;;;;;;;;;;;;;;14.20;54.69;100992.06;4920031;28;98115;-66
2022/04/27 00:51:14;;;;;;;;;;;;;;;14.17;54.71;100985.31;4921274;28;98439;-62
2022/04/27 00:53:43;;;;;;;;;;;;;;;14.15;54.60;100990.22;4934783;28;99124;-64
2022/04/27 00:56:10;;;;;;;;;;;;;;;14.13;54.81;100989.66;4921494;28;98323;-66
2022/04/27 00:58:36;;;;;;;;;;;;;;;14.11;54.79;101004.56;4919833;28;120140;-63
2022/04/27 01:01:02;;;;;;;;;;;;;;;14.08;54.92;100997.00;4920261;28;125989;-65
2022/04/27 01:03:27;;;;;;;;;;;;;;;14.06;54.78;100996.47;4920165;28;98168;-65
2022/04/27 01:05:53;;;;;;;;;;;;;;;14.04;54.59;101002.19;4920263;28;127620;-65
2022/04/27 01:08:21;;;;;;;;;;;;;;;14.02;54.83;100998.09;4918435;28;120838;-64
2022/04/27 01:10:50;;;;;;;;;;;;;;;13.99;54.70;100997.59;4921020;28;98275;-65
2022/04/27 01:13:16;;;;;;;;;;;;;;;13.97;54.64;101002.47;4919692;28;98402;-64
2022/04/27 01:15:43;;;;;;;;;;;;;;;13.93;54.86;101000.59;4921381;28;97933;-62
2022/04/27 01:18:09;;;;;;;;;;;;;;;13.92;54.83;100998.97;4921047;28;98029;-62
2022/04/27 01:20:44;;;;;;;;;;;;;;;13.89;54.90;101008.47;4931723;28;98298;-66
2022/04/27 01:23:14;;;;;;;;;;;;;;;13.87;54.75;101023.34;4935234;28;98549;-62
2022/04/27 01:26:07;;;;;;;;;;;;;;;13.85;54.86;101017.41;4919432;28;98178;-65
2022/04/27 01:28:35;;;;;;;;;;;;;;;13.83;54.71;101020.38;4913289;28;98309;-66
2022/04/27 01:31:05;;;;;;;;;;;;;;;13.81;54.99;101025.28;4883534;28;98851;-67
2022/04/27 01:33:34;;;;;;;;;;;;;;;13.78;55.00;101025.03;4907879;28;98487;-62
2022/04/27 01:36:00;;;;;;;;;;;;;;;13.77;55.04;101026.91;4920820;28;97978;-62
2022/04/27 01:38:26;;;;;;;;;;;;;;;13.74;54.94;101022.84;4920201;28;97862;-62
2022/04/27 01:40:56;;;;;;;;;;;;;;;13.72;54.85;101019.63;4919527;28;119977;-66
2022/04/27 01:43:24;;;;;;;;;;;;;;;13.70;54.99;101027.19;4918704;28;98447;-66
2022/04/27 01:45:50;;;;;;;;;;;;;;;13.68;55.00;101034.81;4920566;28;98300;-63
2022/04/27 01:48:16;;;;;;;;;;;;;;;13.67;54.90;101026.94;4919412;28;111545;-66
2022/04/27 01:50:42;;;;;;;;;;;;;;;13.65;55.03;101029.94;4919855;28;128907;-65
2022/04/27 01:55:53;;;;;;;;;;;;;;;13.62;55.15;101022.34;4923207;28;97814;-63
2022/04/27 01:58:19;;;;;;;;;;;;;;;13.60;55.00;101024.53;4929611;28;122647;-63
2022/04/27 02:00:47;;;;;;;;;;;;;;;13.59;55.07;101019.38;4919082;28;127661;-65
2022/04/27 02:03:13;;;;;;;;;;;;;;;13.58;54.95;101018.56;4919250;28;98202;-66
2022/04/27 02:05:40;;;;;;;;;;;;;;;13.57;54.96;101025.06;4919582;28;128266;-66
2022/04/27 02:08:06;;;;;;;;;;;;;;;13.56;55.06;101031.59;4919747;28;102422;-62
2022/04/27 02:10:32;;;;;;;;;;;;;;;13.55;55.11;101037.25;4920449;28;99381;-67
2022/04/27 02:12:58;;;;;;;;;;;;;;;13.53;55.16;101042.94;4918548;28;125851;-62
2022/04/27 02:15:24;;;;;;;;;;;;;;;13.52;55.10;101038.63;4919805;28;98416;-66
2022/04/27 02:17:50;;;;;;;;;;;;;;;13.50;55.05;101041.59;4919264;28;105317;-62
2022/04/27 02:20:22;;;;;;;;;;;;;;;13.49;55.27;101036.47;4927948;28;99072;-62
2022/04/27 02:22:48;;;;;;;;;;;;;;;13.48;55.35;101040.25;4933823;28;99462;-63
2022/04/27 02:25:14;;;;;;;;;;;;;;;13.46;55.23;101042.41;4919201;28;124017;-65
2022/04/27 02:27:40;;;;;;;;;;;;;;;13.46;55.29;101039.72;4919197;28;120447;-65
2022/04/27 02:30:07;;;;;;;;;;;;;;;13.44;55.36;101044.56;4919919;28;99127;-62
2022/04/27 02:32:33;;;;;;;;;;;;;;;13.42;55.24;101047.56;4918874;28;126154;-64
2022/04/27 02:34:59;;;;;;;;;;;;;;;13.41;55.32;101047.84;4918756;28;123282;-62
2022/04/27 02:37:25;;;;;;;;;;;;;;;13.40;55.35;101048.91;4919523;28;122777;-65
2022/04/27 02:39:51;;;;;;;;;;;;;;;13.39;55.18;101056.22;4919853;28;110109;-62
2022/04/27 02:42:17;;;;;;;;;;;;;;;13.39;55.33;101044.59;4918235;28;128590;-62
2022/04/27 02:44:46;;;;;;;;;;;;;;;13.37;55.29;101053.00;4919723;28;98874;-65
2022/04/27 02:47:12;;;;;;;;;;;;;;;13.37;55.46;101050.28;4920978;28;97858;-65
2022/04/27 02:52:23;;;;;;;;;;;;;;;13.34;55.45;101052.72;4916199;28;98215;-66
2022/04/27 02:54:49;;;;;;;;;;;;;;;13.32;55.54;101055.69;4921400;28;110827;-63
2022/04/27 02:57:16;;;;;;;;;;;;;;;13.33;55.46;101067.34;4925168;28;98563;-66
2022/04/27 02:59:42;;;;;;;;;;;;;;;13.32;55.60;101063.78;4921110;28;98555;-63
2022/04/27 03:02:08;;;;;;;;;;;;;;;13.30;55.68;101067.88;4920958;28;98431;-63
2022/04/27 03:04:34;;;;;;;;;;;;;;;13.29;55.63;101068.97;4936493;28;127914;-62
2022/04/27 03:07:00;;;;;;;;;;;;;;;13.27;55.72;101067.31;4937735;28;98195;-63
2022/04/27 03:09:26;;;;;;;;;;;;;;;13.27;55.70;101063.81;4920958;28;98441;-66
2022/04/27 03:11:52;;;;;;;;;;;;;;;13.25;55.77;101060.56;4922889;28;104688;-66
2022/04/27 03:14:19;;;;;;;;;;;;;;;13.24;55.68;101062.47;4921910;28;98107;-66
2022/04/27 03:16:45;;;;;;;;;;;;;;;13.24;55.60;101073.31;4922545;28;109431;-66
2022/04/27 03:19:11;;;;;;;;;;;;;;;13.22;55.79;101070.00;4919991;28;100143;-62
2022/04/27 03:21:37;;;;;;;;;;;;;;;13.22;55.82;101075.41;4941166;28;127386;-66
2022/04/27 03:24:03;;;;;;;;;;;;;;;13.19;55.67;101062.41;4925061;28;127745;-66
2022/04/27 03:26:29;;;;;;;;;;;;;;;13.20;55.81;101074.06;4921627;28;120035;-62
2022/04/27 03:28:55;;;;;;;;;;;;;;;13.18;55.89;101079.75;4921807;28;113558;-64
2022/04/27 03:31:21;;;;;;;;;;;;;;;13.17;55.65;101080.84;4919261;28;128662;-62
2022/04/27 03:33:47;;;;;;;;;;;;;;;13.17;55.98;101086.25;4920979;28;127617;-65
2022/04/27 03:36:13;;;;;;;;;;;;;;;13.15;55.94;101083.00;4921500;28;119709;-64
2022/04/27 03:38:39;;;;;;;;;;;;;;;13.14;55.94;101084.06;4919529;28;128758;-62
2022/04/27 03:41:05;;;;;;;;;;;;;;;13.14;55.88;101083.28;4919274;28;128651;-65
2022/04/27 03:43:31;;;;;;;;;;;;;;;13.13;55.94;101084.38;4921883;28;98158;-62
2022/04/27 03:45:57;;;;;;;;;;;;;;;13.13;55.93;101089.78;4920995;28;121919;-62
2022/04/27 03:48:23;;;;;;;;;;;;;;;13.11;55.99;101090.03;4920780;28;128117;-62
2022/04/27 03:50:49;;;;;;;;;;;;;;;13.12;56.22;101096.25;4921608;28;126069;-66
2022/04/27 03:53:15;;;;;;;;;;;;;;;13.12;55.83;101104.38;4921363;28;98343;-66
2022/04/27 03:55:41;;;;;;;;;;;;;;;13.11;56.11;101106.25;4924951;28;122409;-63
2022/04/27 03:58:07;;;;;;;;;;;;;;;13.11;56.07;101110.88;4925702;28;111984;-63
2022/04/27 04:00:33;;;;;;;;;;;;;;;13.10;56.07;101120.88;4921460;28;98542;-63
2022/04/27 04:03:00;;;;;;;;;;;;;;;13.11;56.12;101124.41;4935079;28;125346;-65
2022/04/27 04:05:26;;;;;;;;;;;;;;;13.11;56.13;101127.91;4920964;28;98226;-63
2022/04/27 04:07:52;;;;;;;;;;;;;;;13.11;56.23;101119.00;4920233;28;120467;-63
2022/04/27 04:10:18;;;;;;;;;;;;;;;13.12;56.05;101126.81;4921558;28;126208;-65
2022/04/27 04:12:47;;;;;;;;;;;;;;;13.12;56.19;101131.44;4917730;28;120883;-65
2022/04/27 04:15:13;;;;;;;;;;;;;;;13.12;56.14;101129.53;4921545;28;111926;-63
2022/04/27 04:17:45;;;;;;;;;;;;;;;13.14;56.12;101140.13;4920345;28;127310;-66
2022/04/27 04:20:17;;;;;;;;;;;;;;;13.14;56.11;101142.81;4929085;28;98531;-63
2022/04/27 04:22:43;;;;;;;;;;;;;;;13.14;56.18;101138.22;4938708;28;98355;-66
2022/04/27 04:30:39;;;;;;;;;;;;;;;13.16;56.27;101146.06;4899105;28;98005;-64
2022/04/27 04:33:05;;;;;;;;;;;;;;;13.16;56.14;101148.75;4900119;28;122697;-63
2022/04/27 04:35:31;;;;;;;;;;;;;;;13.17;56.24;101159.34;4916356;28;121993;-65
2022/04/27 04:37:57;;;;;;;;;;;;;;;13.18;56.14;101158.25;4919529;28;112049;-63
2022/04/27 04:40:22;;;;;;;;;;;;;;;13.19;56.12;101159.06;4920944;28;99322;-64
2022/04/27 04:42:48;;;;;;;;;;;;;;;13.20;56.25;101169.63;4919783;28;127553;-62
2022/04/27 04:45:14;;;;;;;;;;;;;;;13.22;56.19;101170.16;4920736;28;120620;-67
2022/04/27 04:47:42;;;;;;;;;;;;;;;13.25;56.22;101171.56;4914961;28;99331;-66
2022/04/27 04:50:09;;;;;;;;;;;;;;;13.27;56.23;101172.09;4909700;28;98741;-63
2022/04/27 04:52:35;;;;;;;;;;;;;;;13.30;56.18;101178.88;4920220;28;113627;-64
2022/04/27 04:55:01;;;;;;;;;;;;;;;13.33;56.49;101183.78;4921259;28;97902;-64
2022/04/27 04:57:26;;;;;;;;;;;;;;;13.34;56.26;101180.78;4930349;28;125307;-65
2022/04/27 04:59:52;;;;;;;;;;;;;;;13.38;56.28;101191.88;4920127;28;127791;-63
2022/04/27 05:02:19;;;;;;;;;;;;;;;13.40;56.25;101198.69;4920123;28;105617;-66
2022/04/27 05:04:45;;;;;;;;;;;;;;;13.44;56.37;101194.34;4920855;28;97765;-66
2022/04/27 05:07:11;;;;;;;;;;;;;;;13.47;56.28;101192.97;4920237;28;98258;-63
2022/04/27 05:09:37;;;;;;;;;;;;;;;13.49;56.16;101190.81;4920420;28;98993;-66
2022/04/27 05:12:04;;;;;;;;;;;;;;;13.53;56.23;101196.53;4919350;28;97956;-65
2022/04/27 05:14:30;;;;;;;;;;;;;;;13.55;56.08;101207.88;4919989;28;97794;-66
2022/04/27 05:16:56;;;;;;;;;;;;;;;13.57;56.37;101214.66;4919089;28;128201;-63
2022/04/27 05:19:22;;;;;;;;;;;;;;;13.61;56.24;101223.88;4920323;28;107504;-63
2022/04/27 05:21:51;;;;;;;;;;;;;;;13.63;56.34;101221.69;4940872;28;98159;-66
2022/04/27 05:24:17;;;;;;;;;;;;;;;13.66;56.14;101223.06;4924076;28;97892;-63
2022/04/27 05:26:43;;;;;;;;;;;;;;;13.70;56.45;101232.28;4920026;28;99358;-63
2022/04/27 05:31:54;;;;;;;;;;;;;;;13.74;56.28;101239.59;4917305;28;97951;-66
2022/04/27 05:34:20;;;;;;;;;;;;;;;13.78;56.34;101233.66;4919256;28;120465;-64
2022/04/27 05:36:46;;;;;;;;;;;;;;;13.81;56.37;101241.25;4935426;28;103231;-63
2022/04/27 05:39:12;;;;;;;;;;;;;;;13.83;56.11;101241.78;4919682;28;113946;-66
2022/04/27 05:41:38;;;;;;;;;;;;;;;13.86;56.31;101241.25;4919920;28;121252;-63
2022/04/27 05:44:09;;;;;;;;;;;;;;;13.87;56.44;101249.13;4919768;28;97968;-66
2022/04/27 05:46:36;;;;;;;;;;;;;;;13.90;56.22;101255.88;4921249;28;98014;-63
2022/04/27 05:49:02;;;;;;;;;;;;;;;13.93;56.39;101263.47;4933258;28;122891;-63
2022/04/27 05:51:28;;;;;;;;;;;;;;;13.96;56.47;101265.66;4919369;28;127006;-65
2022/04/27 05:53:54;;;;;;;;;;;;;;;13.96;56.40;101258.31;4920512;28;97909;-67
2022/04/27 05:56:20;;;;;;;;;;;;;;;14.03;56.56;101270.78;4928439;28;126990;-67
2022/04/27 05:58:47;;;;;;;;;;;;;;;14.06;56.25;101275.66;4921339;28;102737;-66
2022/04/27 06:01:13;;;;;;;;;;;;;;;14.07;56.25;101278.13;4920052;28;98273;-63
2022/04/27 06:03:39;;;;;;;;;;;;;;;14.11;56.33;101275.66;4917249;28;121949;-63
2022/04/27 06:06:05;;;;;;;;;;;;;;;14.12;56.29;101278.13;4919676;28;126796;-63
2022/04/27 06:08:31;;;;;;;;;;;;;;;14.16;56.32;101281.09;4918520;28;128455;-63
2022/04/27 06:10:57;;;;;;;;;;;;;;;14.17;56.23;101278.09;4917370;28;127483;-63
2022/04/27 06:13:24;;;;;;;;;;;;;;;14.20;56.33;101279.47;4933017;28;121253;-63
2022/04/27 06:15:50;;;;;;;;;;;;;;;14.23;56.32;101289.78;4920416;28;98802;-63
2022/04/27 06:18:16;;;;;;;;;;;;;;;14.25;56.50;101291.13;4918286;28;123332;-66
2022/04/27 06:20:42;;;;;;;;;;;;;;;14.28;56.49;101289.75;4932954;28;126809;-65
2022/04/27 06:23:09;;;;;;;;;;;;;;;14.31;56.51;101291.13;4918523;28;120667;-63
2022/04/27 06:25:36;;;;;;;;;;;;;;;14.34;56.76;101294.09;4919603;28;98623;-63
2022/04/27 06:28:02;;;;;;;;;;;;;;;14.39;56.16;101299.53;4919285;28;98584;-63
2022/04/27 06:30:28;;;;;;;;;;;;;;;14.44;56.23;101296.00;4922416;28;98038;-66
2022/04/27 06:32:54;;;;;;;;;;;;;;;14.47;56.43;101301.69;4922784;28;113006;-63
2022/04/27 06:35:20;;;;;;;;;;;;;;;14.52;55.93;101303.59;4922020;28;127115;-63
2022/04/27 06:37:46;;;;;;;;;;;;;;;14.57;56.25;101305.50;4921800;28;127958;-63
2022/04/27 06:40:12;;;;;;;;;;;;;;;14.61;56.35;101306.56;4922657;28;105039;-65
2022/04/27 06:42:44;;;;;;;;;;;;;;;14.67;56.04;101316.34;4921219;28;97984;-66
2022/04/27 06:45:10;;;;;;;;;;;;;;;14.72;55.91;101311.72;4922047;28;109655;-65
2022/04/27 06:47:36;;;;;;;;;;;;;;;14.80;56.16;101315.75;4921763;28;121481;-63
2022/04/27 06:50:02;;;;;;;;;;;;;;;14.88;55.69;101315.19;4921355;28;127580;-63
2022/04/27 06:52:28;;;;;;;;;;;;;;;14.96;55.56;101311.91;4916170;28;121730;-63
2022/04/27 06:54:54;;;;;;;;;;;;;;;15.07;55.56;101320.03;4899806;28;126947;-66
2022/04/27 06:57:20;;;;;;;;;;;;;;;15.17;55.68;101318.09;4923636;28;128059;-67
2022/04/27 06:59:46;;;;;;;;;;;;;;;15.28;55.62;101320.75;4921470;28;128460;-65
2022/04/27 07:02:13;;;;;;;;;;;;;;;15.38;55.22;101318.03;4922881;28;98278;-66
2022/04/27 07:04:41;;;;;;;;;;;;;;;15.50;54.97;101323.13;4922446;28;98544;-63
2022/04/27 07:07:07;;;;;;;;;;;;;;;15.62;54.77;101329.84;4937286;28;98394;-67
2022/04/27 07:09:33;;;;;;;;;;;;;;;15.74;54.72;101332.25;4919955;28;98404;-63
2022/04/27 07:11:59;;;;;;;;;;;;;;;15.88;54.58;101338.69;4921441;28;122481;-66
2022/04/27 07:14:25;;;;;;;;;;;;;;;16.03;54.48;101331.53;4920083;28;128163;-66
2022/04/27 07:16:51;;;;;;;;;;;;;;;16.19;54.28;101335.75;4920113;28;101734;-65
2022/04/27 07:19:17;;;;;;;;;;;;;;;16.38;53.72;101333.16;4921057;28;127164;-66
2022/04/27 07:21:43;;;;;;;;;;;;;;;16.61;53.56;101345.19;4923560;28;98121;-66
2022/04/27 07:24:09;;;;;;;;;;;;;;;16.85;53.23;101339.81;4921410;28;109404;-63
2022/04/27 07:26:35;;;;;;;;;;;;;;;17.06;52.86;101343.97;4921212;28;128190;-63
2022/04/27 07:29:01;;;;;;;;;;;;;;;17.33;52.84;101346.09;4920906;28;128384;-63
2022/04/27 07:31:27;;;;;;;;;;;;;;;17.62;52.43;101348.69;4918392;28;122603;-64
2022/04/27 07:33:53;;;;;;;;;;;;;;;17.95;52.18;101348.81;4919328;28;106125;-63
2022/04/27 07:36:19;;;;;;;;;;;;;;;18.28;51.72;101346.16;4919612;28;129092;-63
2022/04/27 07:38:45;;;;;;;;;;;;;;;18.59;51.66;101354.63;4920182;28;98796;-67
2022/04/27 07:41:11;;;;;;;;;;;;;;;18.87;51.45;101363.72;4920340;28;121849;-66
2022/04/27 07:43:37;;;;;;;;;;;;;;;19.15;51.33;101361.00;4920903;28;121300;-65
2022/04/27 07:46:07;;;;;;;;;;;;;;;19.43;51.31;101359.88;4920616;28;128172;-64
2022/04/27 07:48:33;;;;;;;;;;;;;;;19.74;50.95;101365.53;4922350;28;98347;-66
2022/04/27 07:51:00;;;;;;;;;;;;;;;20.05;50.94;101373.84;4921606;28;120351;-65
2022/04/27 07:53:26;;;;;;;;;;;;;;;20.28;50.85;101382.88;4935957;28;98367;-63
2022/04/27 07:55:52;;;;;;;;;;;;;;;20.46;51.12;101383.00;4926965;28;98350;-68
2022/04/27 07:58:18;;;;;;;;;;;;;;;20.55;51.34;101386.63;4931729;28;125696;-67
2022/04/27 08:00:44;;;;;;;;;;;;;;;20.66;51.45;101385.25;4922275;28;98065;-64
2022/04/27 08:03:10;;;;;;;;;;;;;;;20.76;51.48;101389.66;4920313;28;127246;-65
2022/04/27 08:05:35;;;;;;;;;;;;;;;20.87;51.52;101388.28;4919852;28;127934;-66
2022/04/27 08:08:01;;;;;;;;;;;;;;;21.00;51.60;101390.13;4920628;28;127852;-63
2022/04/27 08:10:28;;;;;;;;;;;;;;;21.13;51.47;101396.59;4921592;28;98052;-66
2022/04/27 08:12:54;;;;;;;;;;;;;;;21.27;51.61;101397.31;4921480;28;103289;-63
2022/04/27 08:15:22;;;;;;;;;;;;;;;21.46;51.41;101401.78;4920179;28;128134;-66
2022/04/27 08:18:01;;;;;;;;;;;;;;;21.68;51.37;101400.84;4921763;28;98104;-64
2022/04/27 08:23:13;;;;;;;;;;;;;;;22.23;50.99;101398.34;4920059;28;98424;-64
2022/04/27 08:25:39;;;;;;;;;;;;;;;22.51;50.83;101396.03;4920536;28;102474;-67
2022/04/27 08:28:08;;;;;;;;;;;;;;;22.93;50.16;101401.00;4918365;28;127597;-63
2022/04/27 08:30:38;;;;;;;;;;;;;;;23.35;50.19;101403.91;4919532;28;97885;-66
2022/04/27 08:33:05;;;;;;;;;;;;;;;23.92;49.34;101406.16;4918374;28;123874;-63
2022/04/27 08:35:31;;;;;;;;;;;;;;;24.12;49.39;101405.34;4934852;28;99352;-66
2022/04/27 08:37:58;;;;;;;;;;;;;;;24.33;49.48;101404.56;4920562;28;98170;-67
2022/04/27 08:40:27;;;;;;;;;;;;;;;24.41;49.74;101412.75;4921196;28;97808;-66
2022/04/27 08:42:53;;;;;;;;;;;;;;;24.52;50.13;101413.13;4901820;28;99242;-66
2022/04/27 08:45:19;;;;;;;;;;;;;;;24.59;49.85;101407.88;4901341;28;98955;-63
2022/04/27 08:47:49;;;;;;;;;;;;;;;24.77;50.12;101410.47;4901195;28;97954;-63
2022/04/27 08:50:16;;;;;;;;;;;;;;;24.92;50.11;101412.56;4899940;28;98088;-63
2022/04/27 08:52:43;;;;;;;;;;;;;;;25.18;49.47;101413.06;4901302;28;120637;-64
2022/04/27 08:55:10;;;;;;;;;;;;;;;25.76;49.07;101412.94;4900519;28;127298;-67
2022/04/27 08:57:36;;;;;;;;;;;;;;;26.09;48.74;101414.72;4936288;28;97900;-67
2022/04/27 09:00:06;;;;;;;;;;;;;;;26.19;49.04;101423.31;4920718;28;98078;-63
2022/04/27 09:02:32;;;;;;;;;;;;;;;26.30;48.99;101420.06;4917417;28;99546;-64
2022/04/27 09:05:13;;;;;;;;;;;;;;;26.70;48.44;101419.22;4918465;28;98687;-63
2022/04/27 09:07:40;;;;;;;;;;;;;;;26.81;48.74;101426.63;4920148;28;98533;-67
2022/04/27 09:10:08;;;;;;;;;;;;;;;27.05;48.55;101417.38;4920585;28;98317;-67
2022/04/27 09:12:43;;;;;;;;;;;;;;;27.09;48.43;101423.81;4919014;28;125989;-63
2022/04/27 09:15:09;;;;;;;;;;;;;;;28.15;47.13;101421.13;4919510;28;125982;-63
2022/04/27 09:23:05;;;;;;;;;;;;;;;33.67;41.35;101431.63;4899480;28;98415;-67
2022/04/27 09:25:32;;;;;;;;;;;;;;;34.72;40.06;101425.22;4900560;28;98943;-63
2022/04/27 09:28:01;;;;;;;;;;;;;;;36.07;38.81;101427.94;4910644;28;124649;-66
2022/04/27 09:30:27;;;;;;;;;;;;;;;37.67;37.22;101421.03;4920695;28;97742;-66
2022/04/27 09:32:52;;;;;;;;;;;;;;;39.35;35.99;101431.31;4919258;28;98364;-65
2022/04/27 09:35:32;;;;;;;;;;;;;;;40.62;35.24;101433.69;4919801;28;128045;-64
2022/04/27 09:38:14;;;;;;;;;;;;;;;41.79;33.70;101414.69;4919103;28;97903;-64
2022/04/27 09:40:54;;;;;;;;;;;;;;;42.94;32.81;101419.47;4921632;28;97634;-64
2022/04/27 09:43:45;;;;;;;;;;;;;;;43.72;32.28;101408.78;4900591;28;98968;-64
2022/04/27 09:46:22;;;;;;;;;;;;;;;44.05;32.67;101406.03;4900865;28;97992;-67
2022/04/27 09:49:11;;;;;;;;;;;;;;;43.40;33.36;101398.88;4900709;28;97928;-64
2022/04/27 09:51:53;;;;;;;;;;;;;;;45.33;31.03;101395.97;4908492;28;99389;-64
2022/04/27 09:54:24;;;;;;;;;;;;;;;46.13;30.19;101379.78;4919894;28;101762;-63
2022/04/27 09:56:57;;;;;;;;;;;;;;;46.90;29.75;101380.63;4932469;28;97811;-63
2022/04/27 09:59:30;;;;;;;;;;;;;;;47.30;29.19;101373.31;4922469;28;99490;-67
2022/04/27 10:02:05;;;;;;;;;;;;;;;47.74;29.10;101380.78;4920466;28;97888;-63
2022/04/27 10:04:31;;;;;;;;;;;;;;;48.41;28.41;101373.50;4919674;28;98157;-64
2022/04/27 10:06:58;;;;;;;;;;;;;;;48.83;27.70;101374.75;4920590;28;102586;-63
2022/04/27 10:09:25;;;;;;;;;;;;;;;46.62;29.91;101358.28;4920339;28;98258;-64
2022/04/27 10:11:52;;;;;;;;;;;;;;;48.16;27.85;101360.88;4920132;28;98119;-64
2022/04/27 10:14:18;;;;;;;;;;;;;;;45.89;29.88;101350.69;4917721;28;98885;-68
2022/04/27 10:16:44;;;;;;;;;;;;;;;47.92;27.74;101355.50;4918801;28;126287;-65
2022/04/27 10:19:10;;;;;;;;;;;;;;;48.48;27.01;101357.16;4919758;28;111620;-66
2022/04/27 10:21:43;;;;;;;;;;;;;;;48.94;26.52;101353.22;4919424;28;111504;-64
2022/04/27 10:24:09;;;;;;;;;;;;;;;48.99;26.71;101356.06;4919573;28;98433;-67
2022/04/27 10:26:35;;;;;;;;;;;;;;;49.36;26.11;101353.03;4918712;28;125134;-66
2022/04/27 10:29:08;;;;;;;;;;;;;;;49.49;26.01;101351.78;4918544;28;127343;-67
2022/04/27 10:31:40;;;;;;;;;;;;;;;49.68;25.82;101344.25;4913741;28;97733;-64
2022/04/27 10:34:19;;;;;;;;;;;;;;;49.67;25.82;101341.88;4919209;28;98033;-62
2022/04/27 10:36:47;;;;;;;;;;;;;;;49.54;25.78;101334.59;4934140;28;97801;-65
2022/04/27 10:39:14;;;;;;;;;;;;;;;49.56;25.68;101336.94;4918747;28;98253;-64
2022/04/27 10:41:40;;;;;;;;;;;;;;;49.28;24.37;101329.09;4918988;28;97810;-63
2022/04/27 10:44:06;;;;;;;;;;;;;;;48.76;23.03;101320.88;4918449;28;123315;-66
2022/04/27 10:46:38;;;;;;;;;;;;;;;48.15;22.62;101322.19;4918727;28;127818;-66
2022/04/27 10:49:27;;;;;;;;;;;;;;;47.56;21.58;101314.19;4919407;28;98330;-65
2022/04/27 10:52:03;;;;;;;;;;;;;;;47.13;21.63;101299.00;4919955;28;97788;-65
2022/04/27 10:54:32;;;;;;;;;;;;;;;46.73;21.09;101301.41;4919411;28;97948;-66
2022/04/27 10:57:17;;;;;;;;;;;;;;;45.75;21.25;101301.03;4933563;28;98106;-65
2022/04/27 11:00:01;;;;;;;;;;;;;;;42.87;22.29;101297.91;4909598;28;97940;-67
2022/04/27 11:02:33;;;;;;;;;;;;;;;40.90;22.86;101299.16;4918575;28;98341;-63
2022/04/27 11:05:03;;;;;;;;;;;;;;;39.09;23.35;101298.72;4918617;28;98855;-66
2022/04/27 11:07:33;;;;;;;;;;;;;;;37.64;24.04;101296.16;4918617;28;111102;-66
2022/04/27 11:10:20;;;;;;;;;;;;;;;35.96;24.55;101293.47;4933427;28;98148;-65
2022/04/27 11:12:53;;;;;;;;;;;;;;;34.46;25.33;101292.25;4919094;28;97949;-65
2022/04/27 11:15:21;;;;;;;;;;;;;;;33.35;25.40;101300.41;4920522;28;97834;-65
2022/04/27 11:18:01;;;;;;;;;;;;;;;32.45;25.70;101299.69;4918004;28;98012;-65
2022/04/27 11:20:34;;;;;;;;;;;;;;;31.60;26.33;101292.66;4922670;28;98478;-64
2022/04/27 11:23:03;;;;;;;;;;;;;;;30.92;26.27;101303.34;4922610;28;97734;-64
2022/04/27 11:25:36;;;;;;;;;;;;;;;30.31;26.45;101310.38;4922427;28;98498;-64
2022/04/27 11:28:02;;;;;;;;;;;;;;;29.73;26.98;101316.44;4921230;28;98362;-66
2022/04/27 11:30:30;;;;;;;;;;;;;;;29.15;27.33;101314.03;4922664;28;103701;-65
2022/04/27 11:32:56;;;;;;;;;;;;;;;28.62;27.44;101315.53;4920471;28;98149;-64
2022/04/27 11:35:23;;;;;;;;;;;;;;;28.22;27.55;101315.16;4921621;28;98404;-66
2022/04/27 11:37:52;;;;;;;;;;;;;;;27.85;27.65;101313.69;4922586;28;99110;-66
2022/04/27 11:40:19;;;;;;;;;;;;;;;27.51;28.13;101320.84;4921745;28;98572;-66
2022/04/27 11:42:48;;;;;;;;;;;;;;;27.15;28.37;101325.56;4921899;28;97965;-66
2022/04/27 11:45:18;;;;;;;;;;;;;;;26.76;28.68;101332.06;4921611;28;98239;-66
2022/04/27 11:47:44;;;;;;;;;;;;;;;26.34;29.03;101332.56;4935324;28;116981;-64
2022/04/27 11:50:10;;;;;;;;;;;;;;;25.96;29.14;101339.38;4921258;28;128661;-64
2022/04/27 11:52:38;;;;;;;;;;;;;;;25.62;29.54;101338.78;4921373;28;113029;-66
2022/04/27 11:55:09;;;;;;;;;;;;;;;25.30;29.48;101348.00;4921080;28;99153;-66
2022/04/27 11:57:35;;;;;;;;;;;;;;;24.97;29.91;101341.44;4938276;28;98527;-66
2022/04/27 12:00:02;;;;;;;;;;;;;;;24.71;29.87;101343.72;4920835;28;119000;-64
2022/04/27 12:02:28;;;;;;;;;;;;;;;24.46;30.06;101342.88;4921449;28;97874;-66
2022/04/27 12:04:57;;;;;;;;;;;;;;;24.20;30.33;101349.38;4920237;28;128467;-66
2022/04/27 12:07:23;;;;;;;;;;;;;;;23.98;30.56;101353.31;4921697;28;98795;-66
2022/04/27 12:10:04;;;;;;;;;;;;;;;23.78;30.27;101351.41;4921922;28;98467;-64
2022/04/27 12:12:30;;;;;;;;;;;;;;;23.58;30.54;101352.13;4922141;28;97857;-63
2022/04/27 12:14:57;;;;;;;;;;;;;;;23.44;30.78;101350.44;4920921;28;98526;-63
2022/04/27 12:17:47;;;;;;;;;;;;;;;23.32;30.85;101350.34;4922105;28;98427;-64
2022/04/27 12:20:33;;;;;;;;;;;;;;;23.21;31.45;101358.19;4921784;28;98257;-66
2022/04/27 12:23:00;;;;;;;;;;;;;;;23.11;31.82;101361.31;4921076;28;97947;-63
2022/04/27 12:25:56;;;;;;;;;;;;;;;23.02;31.94;101355.03;4921304;28;98599;-63
2022/04/27 12:28:33;;;;;;;;;;;;;;;22.93;32.17;101360.56;4913565;28;98107;-63
2022/04/27 12:31:06;;;;;;;;;;;;;;;22.87;32.69;101356.38;4900667;28;126296;-64
2022/04/27 12:33:36;;;;;;;;;;;;;;;22.84;32.77;101356.22;4901478;28;99734;-66
2022/04/27 12:39:02;;;;;;;;;;;;;;;22.82;33.37;101362.03;4920076;28;98077;-65
2022/04/27 12:41:29;;;;;;;;;;;;;;;22.85;33.56;101363.31;4921408;28;97930;-63
2022/04/27 12:44:01;;;;;;;;;;;;;;;22.89;33.71;101356.84;4922070;28;98437;-63
2022/04/27 12:46:27;;;;;;;;;;;;;;;22.96;34.04;101357.16;4918651;28;97966;-63
2022/04/27 12:49:03;;;;;;;;;;;;;;;23.05;34.07;101356.31;4934005;28;128236;-66
2022/04/27 12:51:29;;;;;;;;;;;;;;;23.15;34.17;101355.97;4921089;28;98165;-64
2022/04/27 12:53:57;;;;;;;;;;;;;;;23.25;34.63;101355.56;4921407;28;98319;-65
2022/04/27 12:56:30;;;;;;;;;;;;;;;23.33;34.78;101354.72;4929971;28;99184;-66
2022/04/27 12:59:03;;;;;;;;;;;;;;;23.43;34.76;101348.03;4926524;28;120933;-67
2022/04/27 13:01:29;;;;;;;;;;;;;;;23.62;34.97;101347.56;4921134;28;98478;-64